Nearby METAR Reports

 

KAPA - Denver/Arapahoe, Colorado, USA
Distance from station: ENE 3mi, 4km
Updated: Thu, 04/26/2018 4:53am MDT
Overcast
Overcast
 Wind from N
Wind: N 21 mph , 33 km/h, Gust: 31 mph , 50 km/h
Temperature: 46°F , 8°C
Wind Chill: 38°F , 3°C
Dew Point: 27°F , -3°C
Humidity: 46%
Barometer: 30.17 inHg , 1021.7 hPa
Clouds: Overcast
Visibility: 10 miles , 16 km
Cloud details: Overcast 11000 ft
2018/04/26 10:53 KAPA 261053Z 01018G27KT 10SM OVC110 08/M03 A3017 RMK AO2 PK WND 01027/1050 SLP182 T00781033
KBKF - Buckley Angb/Den, Colorado, USA
Distance from station: NE 14mi, 22km
Updated: Thu, 04/26/2018 4:58am MDT
Mostly cloudy
Mostly cloudy
 Wind from N
Wind: N 17 mph , 28 km/h, Gust: 26 mph , 43 km/h
Temperature: 45°F , 7°C
Wind Chill: 38°F , 3°C
Dew Point: 27°F , -3°C
Humidity: 49%
Barometer: 30.17 inHg , 1021.7 hPa
Clouds: Mostly cloudy
Visibility: 10 miles , 16 km
Cloud details: Mostly cloudy 10000 ft
Mostly cloudy 20000 ft
2018/04/26 10:58 KBKF 261058Z 36015G23KT 10SM BKN100 BKN200 07/M03 A3017 RMK AO2A SLP172 T00721034
 
KDEN - Denver (dia), Colorado, USA
Distance from station: NNE 24mi, 39km
Updated: Thu, 04/26/2018 4:53am MDT
Mostly cloudy
Mostly cloudy
 Wind from N
Wind: N 24 mph , 39 km/h, Gust: 32 mph , 52 km/h
Temperature: 46°F , 8°C
Wind Chill: 38°F , 3°C
Dew Point: 27°F , -3°C
Humidity: 46%
Barometer: 30.14 inHg , 1020.7 hPa
Clouds: Mostly cloudy
Visibility: 10 miles , 16 km
Cloud details: Mostly cloudy 11000 ft
Mostly cloudy 22000 ft
2018/04/26 10:53 KDEN 261053Z 35021G28KT 10SM BKN110 BKN220 08/M03 A3014 RMK AO2 PK WND 34031/0957 SLP160 T00781033
KFTG - Denver F. Range, Colorado, USA
Distance from station: NE 24mi, 39km
Updated: Thu, 04/26/2018 5:35am MDT
Overcast
Overcast
 Wind from NNW
Wind: NNW 17 mph , 28 km/h, Gust: 26 mph , 43 km/h
Temperature: 46°F , 8°C
Wind Chill: 39°F , 4°C
Dew Point: 28°F , -2°C
Humidity: 50%
Barometer: 30.17 inHg , 1021.7 hPa
Clouds: Overcast
Visibility: 10 miles , 16 km
Cloud details: Overcast 11000 ft
2018/04/26 11:35 KFTG 261135Z AUTO 34015G23KT 10SM OVC110 08/M02 A3017 RMK AO2 T00801016
 
KBJC - Broomfield/Jeffc, Colorado, USA
Distance from station: NNW 26mi, 42km
Updated: Thu, 04/26/2018 5:30am MDT
Overcast
Overcast
 Wind from N
Wind: N 24 mph , 39 km/h, Gust: 30 mph , 48 km/h
Temperature: 46°F , 8°C
Wind Chill: 38°F , 3°C
Dew Point: 27°F , -3°C
Humidity: 46%
Barometer: 30.17 inHg , 1021.7 hPa
Clouds: Overcast
Visibility: 10 miles , 16 km
Cloud details: Mostly cloudy 7500 ft
Overcast 9000 ft
2018/04/26 11:30 KBJC 261130Z AUTO 01021G26KT 10SM BKN075 OVC090 08/M03 A3017 RMK AO2
KMNH - Monument/Elbert, Colorado, USA
Distance from station: SSE 27mi, 43km
Updated: Thu, 04/26/2018 5:30am MDT
Partly cloudy
Partly cloudy
 Wind from NNW
Wind: NNW 15 mph , 24 km/h, Gust: 24 mph , 39 km/h
Temperature: 36°F , 2°C
Wind Chill: 27°F , -3°C
Dew Point: 25°F , -4°C
Humidity: 65%
Barometer: 30.21 inHg , 1023 hPa
Clouds: Partly cloudy
Visibility: 10 miles , 16 km
Cloud details: Partly cloudy 10000 ft
2018/04/26 11:30 KMNH 261130Z AUTO 34013G21KT 10SM SCT100 02/M04 A3021 RMK AO2
 
KEIK - Erie Muni, Colorado, USA
Distance from station: NNW 33mi, 53km
Updated: Thu, 04/26/2018 5:30am MDT
Overcast
Overcast
 Wind from NNE
Wind: NNE 17 mph , 28 km/h, Gust: 26 mph , 43 km/h
Temperature: 48°F , 9°C
Wind Chill: 42°F , 6°C
Dew Point: 25°F , -4°C
Humidity: 40%
Barometer: 30.21 inHg , 1023 hPa
Clouds: Overcast
Visibility: 10 miles , 16 km
Cloud details: Mostly cloudy 10000 ft
Overcast 12000 ft
2018/04/26 11:30 KEIK 261130Z AUTO 02015G23KT 10SM BKN100 OVC120 09/M04 A3021 RMK AO2 T00911041
KBDU - Boulder Muni, Colorado, USA
Distance from station: NNW 38mi, 60km
Updated: Thu, 04/26/2018 5:30am MDT
Mostly cloudy
Mostly cloudy
 Wind from NNE
Wind: NNE 5 mph , 7 km/h
Temperature: 48°F , 9°C
Wind Chill: 46°F , 8°C
Dew Point: 25°F , -4°C
Humidity: 40%
Barometer: 30.15 inHg , 1021 hPa
Clouds: Mostly cloudy
Visibility: 10 miles , 16 km
Cloud details: Mostly cloudy 9000 ft
2018/04/26 11:30 KBDU 261130Z AUTO 03004KT 10SM BKN090 09/M04 A3015 RMK AO2
 
KAFF - Usaf Academy/Cos, Colorado, USA
Distance from station: S 41mi, 66km
Updated: Thu, 04/26/2018 4:58am MDT
Clear
Clear
 Wind from NNW
Wind: NNW 21 mph , 33 km/h, Gust: 35 mph , 56 km/h
Temperature: 43°F , 6°C
Wind Chill: 34°F , 1°C
Dew Point: 23°F , -5°C
Humidity: 46%
Barometer: 30.14 inHg , 1020.7 hPa
Clouds: Clear
Visibility: 10 miles , 16 km
2018/04/26 10:58 KAFF 261058Z AUTO 34018G30KT 10SM CLR 06/M05 A3014 RMK AO2 PK WND 33030/52 SLP161 T00611052
KLMO - Longmont/Vbrand, Colorado, USA
Distance from station: NNW 45mi, 72km
Updated: Thu, 04/26/2018 5:35am MDT
Clear
Clear
 Wind from NNE
Wind: NNE 13 mph , 20 km/h, Gust: 20 mph , 31 km/h
Temperature: 50°F , 10°C
Wind Chill: 45°F , 7°C
Dew Point: 27°F , -3°C
Humidity: 40%
Barometer: 30.17 inHg , 1021.7 hPa
Clouds: Clear
Visibility: 10 miles , 16 km
2018/04/26 11:35 KLMO 261135Z AUTO 02011G17KT 10SM CLR 10/M03 A3017 RMK AO2 T00971029
 
KFLY - Co Spngs Meadow, Colorado, USA
Distance from station: SSE 45mi, 73km
Updated: Thu, 04/26/2018 5:35am MDT
Clear
Clear
 Wind from N
Wind: N 30 mph , 48 km/h, Gust: 39 mph , 63 km/h
Temperature: 41°F , 5°C
Wind Chill: 30°F , -1°C
Dew Point: 23°F , -5°C
Humidity: 49%
Barometer: 30.13 inHg , 1020.3 hPa
Clouds: Clear
Visibility: 10 miles , 16 km
2018/04/26 11:35 KFLY 261135Z AUTO 35026G34KT 10SM CLR 05/M05 A3013 RMK AO2 T00481053
K4BM - Wilkerson Pass, Colorado, USA
Distance from station: SW 48mi, 77km
Updated: Thu, 04/26/2018 5:36am MDT
Mostly cloudy
Mostly cloudy
 Wind from NE
Wind: NE 14 mph , 22 km/h, Gust: 21 mph , 33 km/h
Temperature: 27°F , -3°C
Wind Chill: 16°F , -9°C
Dew Point: 12°F , -11°C
Humidity: 54%
Barometer: 30.28 inHg , 1025.4 hPa
Clouds: Mostly cloudy
Visibility: 10 miles , 16 km
Cloud details: Mostly cloudy 11000 ft
2018/04/26 11:36 K4BM 261136Z AUTO 04012G18KT 10SM BKN110 M03/M11 A3028 RMK AO2
 
K0CO - Berthoud Pass, Colorado, USA
Distance from station: WNW 49mi, 79km
Updated: Thu, 04/26/2018 5:30am MDT
Overcast
Overcast
 Wind from NW
Wind: NW 20 mph , 31 km/h, Gust: 24 mph , 39 km/h
Temperature: 19°F , -7°C
Wind Chill: 3°F , -16°C
Dew Point: 10°F , -12°C
Humidity: 68%
Barometer: 30.28 inHg , 1025.4 hPa
Clouds: Overcast
Cloud details: Mostly cloudy 2100 ft
Overcast 2900 ft
2018/04/26 11:30 K0CO 261130Z AUTO 31017G21KT BKN021 OVC029 M07/M12 A3028 RMK AO2 PWINO